createdAt,value
2019-01-15T00:01:15.455Z,6.50
2019-01-15T00:04:00.291Z,6.83
2019-01-15T00:06:29.404Z,4.10
2019-01-15T00:09:06.451Z,4.47
2019-01-15T00:11:44.674Z,4.40
2019-01-15T00:14:13.740Z,6.80
2019-01-15T00:19:19.322Z,5.82
2019-01-15T00:24:24.630Z,8.80
2019-01-15T00:26:53.718Z,7.37
2019-01-15T00:31:58.856Z,7.85
2019-01-15T00:34:35.137Z,8.10
2019-01-15T00:37:04.194Z,5.77
2019-01-15T00:39:45.838Z,6.30
2019-01-15T00:42:15.479Z,5.00
2019-01-15T00:44:45.886Z,5.82
2019-01-15T00:47:45.831Z,5.97
2019-01-15T00:50:25.251Z,6.77
2019-01-15T00:52:54.311Z,5.60
2019-01-15T00:57:59.109Z,7.37
2019-01-15T01:00:45.287Z,4.95
2019-01-15T01:03:25.434Z,11.70
2019-01-15T01:05:54.496Z,7.20
2019-01-15T01:08:45.595Z,5.10
2019-01-15T01:13:59.323Z,5.30
2019-01-15T01:16:37.679Z,9.63
2019-01-15T01:19:08.751Z,5.60
2019-01-15T01:21:39.717Z,9.33
2019-01-15T01:24:34.240Z,8.13
2019-01-15T01:27:03.319Z,7.63
2019-01-15T01:29:45.260Z,8.82
2019-01-15T01:32:14.318Z,6.30
2019-01-15T01:34:43.377Z,8.20
2019-01-15T01:37:12.458Z,6.40
2019-01-15T01:39:45.543Z,5.23
2019-01-15T01:42:45.536Z,5.63
2019-01-15T01:45:23.518Z,5.93
2019-01-15T01:47:52.578Z,9.23
2019-01-15T01:50:25.430Z,8.47
2019-01-15T01:52:55.429Z,7.18
2019-01-15T01:55:24.500Z,5.50
2019-01-15T01:57:54.463Z,5.93
2019-01-15T02:00:23.512Z,5.03
2019-01-15T02:05:54.459Z,6.95
2019-01-15T02:08:23.503Z,8.70
2019-01-15T02:10:56.092Z,4.10
2019-01-15T02:13:25.155Z,7.80
2019-01-15T02:21:20.604Z,9.83
2019-01-15T02:24:05.138Z,5.40
2019-01-15T02:26:37.320Z,6.50
2019-01-15T02:29:11.268Z,7.13
2019-01-15T02:31:47.528Z,8.65
2019-01-15T02:34:16.607Z,6.70
2019-01-15T02:39:21.386Z,7.10
2019-01-15T02:42:11.506Z,5.17
2019-01-15T02:45:04.799Z,5.67
2019-01-15T02:47:47.587Z,4.80
2019-01-15T02:50:16.630Z,5.00
2019-01-15T02:52:45.670Z,5.15
2019-01-15T02:55:14.727Z,5.20
2019-01-15T02:57:43.789Z,5.50
2019-01-15T03:00:19.812Z,5.73
2019-01-15T03:02:48.873Z,10.60
2019-01-15T03:05:17.923Z,6.17
2019-01-15T03:07:53.627Z,7.73
2019-01-15T03:14:09.602Z,8.27
2019-01-15T03:16:38.620Z,5.03
2019-01-15T03:19:15.250Z,6.20
2019-01-15T03:21:44.313Z,6.27
2019-01-15T03:24:15.259Z,7.93
2019-01-15T03:26:44.435Z,8.10
2019-01-15T03:29:33.808Z,6.13
2019-01-15T03:32:16.846Z,6.67
2019-01-15T03:34:45.939Z,5.97
2019-01-15T03:37:23.653Z,7.25
2019-01-15T03:39:56.695Z,5.53
2019-01-15T03:42:29.489Z,5.20
2019-01-15T03:45:10.466Z,6.00
2019-01-15T03:47:39.542Z,6.60
2019-01-15T03:50:08.610Z,7.68
2019-01-15T03:52:38.090Z,6.20
2019-01-15T03:55:17.798Z,7.62
2019-01-15T03:57:46.871Z,8.77
2019-01-15T04:05:32.021Z,6.23
2019-01-15T04:08:02.059Z,5.75
2019-01-15T04:10:32.015Z,5.37
2019-01-15T04:13:01.078Z,5.67
2019-01-15T04:15:32.022Z,6.70
2019-01-15T04:18:04.514Z,6.53
2019-01-15T04:20:33.561Z,6.03
2019-01-15T04:23:06.117Z,6.03
2019-01-15T04:25:35.162Z,4.27
2019-01-15T04:28:10.567Z,4.63
2019-01-15T04:30:39.626Z,3.53
2019-01-15T04:33:10.635Z,4.53
2019-01-15T04:35:40.348Z,4.87
2019-01-15T04:38:09.406Z,4.47
2019-01-15T04:40:38.909Z,4.53
2019-01-15T04:43:07.967Z,3.12
2019-01-15T04:45:37.048Z,4.60
2019-01-15T04:48:07.007Z,5.60
2019-01-15T04:50:36.052Z,3.90
2019-01-15T04:53:31.711Z,2.97
2019-01-15T04:56:09.187Z,4.20
2019-01-15T04:58:39.148Z,5.10
2019-01-15T05:01:31.734Z,3.50
2019-01-15T05:04:05.821Z,3.17
2019-01-15T05:06:34.862Z,3.93
2019-01-15T05:09:03.910Z,3.33
2019-01-15T05:11:32.976Z,2.70
2019-01-15T05:16:49.655Z,4.80
2019-01-15T05:19:22.111Z,3.20
2019-01-15T05:21:51.164Z,2.70
2019-01-15T05:24:34.483Z,2.67
2019-01-15T05:32:59.908Z,3.30
2019-01-15T05:35:31.877Z,3.27
2019-01-15T05:40:46.121Z,3.78
2019-01-15T05:43:35.842Z,4.37
2019-01-15T05:48:40.327Z,3.83
2019-01-15T05:51:22.253Z,5.00
2019-01-15T05:53:51.291Z,2.57
2019-01-15T05:56:28.296Z,3.40
2019-01-15T05:59:24.617Z,6.63
2019-01-15T06:01:58.023Z,3.37
2019-01-15T06:04:27.960Z,3.40
2019-01-15T06:07:12.732Z,4.40
2019-01-15T06:09:41.798Z,4.70
2019-01-15T06:12:11.748Z,5.87
2019-01-15T06:14:40.835Z,4.40
2019-01-15T06:17:09.904Z,6.45
2019-01-15T06:19:40.570Z,4.70
2019-01-15T06:22:10.040Z,5.43
2019-01-15T06:27:36.548Z,6.80
2019-01-15T06:30:13.054Z,5.53
2019-01-15T06:32:45.930Z,6.47
2019-01-15T06:35:28.731Z,3.70
2019-01-15T06:37:57.780Z,7.53
2019-01-15T06:41:01.420Z,4.80
2019-01-15T06:46:06.203Z,6.75
2019-01-15T06:48:52.285Z,4.47
2019-01-15T06:51:26.254Z,5.80
2019-01-15T06:53:55.287Z,6.43
2019-01-15T06:56:25.279Z,5.57
2019-01-15T06:58:55.267Z,6.60
2019-01-15T07:01:25.224Z,5.03
2019-01-15T07:03:55.177Z,5.97
2019-01-15T07:06:38.908Z,5.30
2019-01-15T07:09:07.939Z,5.50
2019-01-15T07:11:36.992Z,7.05
2019-01-15T07:14:06.030Z,6.70
2019-01-15T07:16:56.467Z,5.70
2019-01-15T07:19:26.438Z,6.07
2019-01-15T07:22:08.443Z,4.90
2019-01-15T07:24:38.384Z,4.77
2019-01-15T07:27:07.476Z,6.67
2019-01-15T07:29:36.480Z,4.30
2019-01-15T07:32:06.449Z,7.30
2019-01-15T07:34:37.443Z,5.30
2019-01-15T07:37:06.547Z,5.00
2019-01-15T07:39:35.582Z,4.83
2019-01-15T07:42:04.619Z,5.03
2019-01-15T07:44:51.792Z,4.77
2019-01-15T07:47:26.726Z,4.90
2019-01-15T07:49:55.735Z,4.00
2019-01-15T07:52:32.875Z,4.07
2019-01-15T07:55:02.862Z,3.87
2019-01-15T07:57:33.871Z,4.63
2019-01-15T08:00:03.036Z,4.00
2019-01-15T08:02:33.148Z,4.10
2019-01-15T08:05:02.197Z,2.97
2019-01-15T08:07:35.149Z,3.30
2019-01-15T08:10:04.182Z,2.73
2019-01-15T08:12:47.638Z,3.53
2019-01-15T08:15:20.563Z,2.33
2019-01-15T08:17:51.519Z,2.97
2019-01-15T08:22:59.411Z,2.90
2019-01-15T08:25:29.436Z,4.07
2019-01-15T08:27:58.511Z,2.72
2019-01-15T08:30:52.062Z,3.13
2019-01-15T08:33:24.364Z,3.03
2019-01-15T08:35:54.304Z,3.40
2019-01-15T08:38:25.255Z,2.50
2019-01-15T08:40:55.201Z,2.90
2019-01-15T08:43:29.604Z,3.20
2019-01-15T08:45:58.639Z,2.87
2019-01-15T08:51:07.055Z,4.07
2019-01-15T08:53:36.139Z,7.43
2019-01-15T08:56:13.271Z,3.13
2019-01-15T08:58:42.339Z,2.97
2019-01-15T09:01:24.604Z,3.20
2019-01-15T09:03:53.642Z,3.53
2019-01-15T09:06:23.611Z,4.57
2019-01-15T09:08:52.652Z,2.97
2019-01-15T09:11:23.711Z,2.80
2019-01-15T09:14:32.751Z,2.67
2019-01-15T09:17:14.983Z,3.67
2019-01-15T09:19:44.014Z,3.87
2019-01-15T09:22:13.055Z,2.50
2019-01-15T09:24:42.894Z,3.03
2019-01-15T09:27:24.424Z,2.37
2019-01-15T09:29:53.519Z,2.87
2019-01-15T09:32:22.506Z,5.20
2019-01-15T09:34:51.565Z,3.73
2019-01-15T09:37:25.857Z,4.90
2019-01-15T09:39:54.922Z,2.80
2019-01-15T09:42:23.939Z,2.87
2019-01-15T09:47:29.652Z,3.40
2019-01-15T09:49:58.878Z,2.83
2019-01-15T09:52:36.060Z,5.10
2019-01-15T09:55:05.223Z,4.20
2019-01-15T09:57:34.251Z,3.90
2019-01-15T10:00:07.939Z,3.17
2019-01-15T10:02:36.995Z,2.73
2019-01-15T10:10:23.484Z,1.70
2019-01-15T10:12:55.969Z,3.15
2019-01-15T10:15:25.021Z,2.60
2019-01-15T10:17:54.052Z,3.00
2019-01-15T10:20:23.107Z,1.83
2019-01-15T10:22:52.148Z,4.60
2019-01-15T10:25:24.631Z,2.33
2019-01-15T10:27:57.891Z,1.90
2019-01-15T10:30:38.329Z,2.00
2019-01-15T10:38:26.792Z,1.48
2019-01-15T10:40:55.843Z,1.90
2019-01-15T10:43:24.873Z,1.80
2019-01-15T10:45:57.046Z,1.70
2019-01-15T10:48:27.031Z,1.70
2019-01-15T10:50:56.974Z,1.67
2019-01-15T10:53:27.002Z,1.30
2019-01-15T10:56:06.349Z,1.63
2019-01-15T10:58:35.398Z,1.40
2019-01-15T11:01:13.967Z,1.40
2019-01-15T11:06:18.756Z,1.83
2019-01-15T11:08:55.483Z,1.33
2019-01-15T11:11:24.539Z,1.13
2019-01-15T11:13:54.498Z,5.33
2019-01-15T11:16:23.545Z,0.97
2019-01-15T11:21:27.824Z,2.65
2019-01-15T11:23:56.851Z,1.20
2019-01-15T11:26:25.890Z,1.23
2019-01-15T11:28:54.939Z,2.10
2019-01-15T11:31:23.972Z,1.10
2019-01-15T11:33:53.006Z,2.20
2019-01-15T11:36:35.868Z,1.27
2019-01-15T11:39:04.895Z,1.30
2019-01-15T11:41:33.927Z,1.53
2019-01-15T11:44:06.398Z,1.07
2019-01-15T11:46:36.532Z,3.73
2019-01-15T11:49:06.513Z,1.50
2019-01-15T11:51:35.547Z,1.40
2019-01-15T11:54:07.783Z,1.67
2019-01-15T11:56:37.799Z,1.60
2019-01-15T11:59:07.018Z,3.10
2019-01-15T12:01:37.034Z,2.37
2019-01-15T12:04:13.940Z,2.07
2019-01-15T12:06:46.226Z,1.73
2019-01-15T12:11:56.618Z,1.65
2019-01-15T12:14:32.099Z,2.60
2019-01-15T12:17:01.536Z,1.57
2019-01-15T12:19:49.520Z,3.07
2019-01-15T12:22:49.451Z,1.37
2019-01-15T12:25:37.966Z,2.07
2019-01-15T12:30:43.617Z,2.40
2019-01-15T12:33:22.689Z,1.60
2019-01-15T12:36:06.131Z,2.27
2019-01-15T12:38:45.926Z,1.50
2019-01-15T12:41:15.268Z,1.70
2019-01-15T12:43:54.885Z,1.35
2019-01-15T12:46:29.747Z,2.37
2019-01-15T12:49:02.085Z,2.03
2019-01-15T12:51:45.356Z,2.67
2019-01-15T12:54:27.302Z,1.90
2019-01-15T12:59:37.513Z,3.25
2019-01-15T13:02:08.546Z,1.95
2019-01-15T13:04:58.378Z,2.40
2019-01-15T13:13:05.932Z,2.10
2019-01-15T13:15:49.322Z,2.00
2019-01-15T13:18:18.370Z,2.93
2019-01-15T13:21:01.333Z,2.70
2019-01-15T13:23:51.047Z,2.27
2019-01-15T13:26:43.271Z,2.07
2019-01-15T13:29:33.115Z,2.90
2019-01-15T13:34:38.451Z,2.40
2019-01-15T13:37:35.424Z,3.03
2019-01-15T13:40:06.229Z,10.83
2019-01-15T13:42:35.354Z,14.83
2019-01-15T13:47:53.874Z,8.90
2019-01-15T13:50:33.920Z,6.20
2019-01-15T13:53:08.623Z,4.63
2019-01-15T13:55:40.058Z,20.97
2019-01-15T14:03:44.955Z,10.10
2019-01-15T14:12:13.986Z,6.40
2019-01-15T14:14:43.100Z,11.53
2019-01-15T14:20:05.713Z,7.78
2019-01-15T14:22:37.568Z,11.87
2019-01-15T14:25:17.603Z,4.07
2019-01-15T14:27:58.339Z,4.60
2019-01-15T14:30:33.585Z,4.03
2019-01-15T14:33:16.591Z,4.55
2019-01-15T14:41:34.121Z,5.55
2019-01-15T14:46:45.249Z,6.00
2019-01-15T14:52:00.060Z,5.35
2019-01-15T14:54:48.726Z,7.00
2019-01-15T14:57:22.382Z,7.10
2019-01-15T15:02:33.559Z,5.78
2019-01-15T15:08:00.058Z,6.15
2019-01-15T15:13:10.205Z,6.15
2019-01-15T15:15:43.206Z,4.80
2019-01-15T15:18:16.674Z,5.00
2019-01-15T15:23:30.269Z,6.10
2019-01-15T15:26:04.036Z,6.60
2019-01-15T15:31:25.590Z,5.70
2019-01-15T15:34:08.594Z,4.77
2019-01-15T15:36:48.308Z,5.20
2019-01-15T15:39:18.466Z,5.23
2019-01-15T15:41:53.133Z,5.68
2019-01-15T15:44:41.496Z,4.97
2019-01-15T15:50:16.450Z,6.30
2019-01-15T15:53:07.277Z,6.00
2019-01-15T15:55:50.520Z,7.00
2019-01-15T15:58:33.491Z,7.90
2019-01-15T16:01:02.509Z,6.60
2019-01-15T16:03:33.804Z,6.20
2019-01-15T16:06:26.503Z,5.53
2019-01-15T16:08:57.840Z,5.30
2019-01-15T16:11:32.756Z,4.93
2019-01-15T16:16:55.471Z,5.20
2019-01-15T16:19:44.235Z,9.80
2019-01-15T16:22:22.904Z,5.33
2019-01-15T16:24:58.136Z,5.60
2019-01-15T16:27:29.359Z,7.33
2019-01-15T16:29:58.497Z,5.93
2019-01-15T16:32:27.753Z,5.27
2019-01-15T16:35:03.505Z,5.53
2019-01-15T16:37:45.071Z,6.53
2019-01-15T16:40:19.907Z,5.20
2019-01-15T16:48:08.014Z,6.82
2019-01-15T16:50:37.299Z,6.60
2019-01-15T16:53:21.231Z,5.70
2019-01-15T17:04:50.575Z,5.37
2019-01-15T17:13:02.200Z,6.32
2019-01-15T17:15:46.167Z,6.32
2019-01-15T17:18:28.451Z,6.47
2019-01-15T17:21:15.807Z,6.33
2019-01-15T17:23:57.585Z,6.23
2019-01-15T17:26:28.987Z,6.03
2019-01-15T17:29:08.929Z,5.70
2019-01-15T17:39:38.291Z,5.62
2019-01-15T18:00:32.100Z,5.55
2019-01-15T18:03:33.751Z,6.53
2019-01-15T18:09:08.786Z,9.38
2019-01-15T18:11:53.435Z,8.00
2019-01-15T18:14:33.031Z,11.80
2019-01-15T18:17:14.998Z,11.40
2019-01-15T18:25:42.194Z,10.55
2019-01-15T18:31:26.659Z,9.07
2019-01-15T18:36:33.367Z,7.95
2019-01-15T18:39:11.627Z,7.37
2019-01-15T18:41:41.464Z,12.93
2019-01-15T18:49:32.218Z,6.60
2019-01-15T18:52:16.376Z,8.00
2019-01-15T18:55:07.995Z,8.40
2019-01-15T18:57:46.995Z,5.27
2019-01-15T19:03:00.947Z,8.05
2019-01-15T19:08:35.259Z,9.00
2019-01-15T19:14:26.253Z,6.10
2019-01-15T19:20:10.070Z,6.28
2019-01-15T19:22:39.423Z,6.87
2019-01-15T19:25:31.067Z,6.97
2019-01-15T19:36:13.484Z,8.20
2019-01-15T19:38:49.832Z,9.70
2019-01-15T19:41:19.242Z,8.67
2019-01-15T19:44:01.052Z,9.57
2019-01-15T19:52:03.247Z,7.43
2019-01-15T19:57:26.813Z,9.70
2019-01-15T20:03:00.453Z,8.13
2019-01-15T20:05:33.337Z,7.90
2019-01-15T20:14:54.327Z,8.35
2019-01-15T20:17:29.903Z,6.50
2019-01-15T20:20:28.931Z,7.73
2019-01-15T20:25:58.511Z,10.80
2019-01-15T20:28:29.722Z,8.23
2019-01-15T20:36:32.403Z,8.10
2019-01-15T20:42:12.222Z,7.40
2019-01-15T20:44:45.071Z,7.33
2019-01-15T20:50:23.069Z,8.20
2019-01-15T20:55:55.247Z,8.10
2019-01-15T20:58:25.640Z,11.20
2019-01-15T21:01:40.894Z,9.07
2019-01-15T21:09:31.702Z,11.07
2019-01-15T21:16:20.489Z,10.07
2019-01-15T21:19:16.446Z,11.73
2019-01-15T21:24:45.851Z,9.70
2019-01-15T21:30:18.156Z,11.85
2019-01-15T21:35:28.921Z,11.10
2019-01-15T21:46:22.305Z,11.73
2019-01-15T21:52:00.597Z,10.38
2019-01-15T21:54:29.636Z,11.73
2019-01-15T21:57:04.436Z,8.03
2019-01-15T21:59:35.467Z,10.73
2019-01-15T22:02:09.514Z,10.70
2019-01-15T22:04:40.832Z,9.10
2019-01-15T22:07:13.831Z,11.70
2019-01-15T22:12:40.147Z,11.65
2019-01-15T22:17:50.359Z,11.73
2019-01-15T22:20:35.646Z,12.47
2019-01-15T22:23:27.280Z,10.30
2019-01-15T22:25:56.886Z,11.40
2019-01-15T22:28:32.287Z,11.40
2019-01-15T22:31:20.287Z,10.20
2019-01-15T22:33:52.135Z,15.47
2019-01-15T22:36:23.198Z,14.27
2019-01-15T22:39:11.436Z,11.63
2019-01-15T22:41:45.994Z,9.67
2019-01-15T22:44:23.397Z,10.43
2019-01-15T22:47:07.202Z,11.70
2019-01-15T22:52:42.795Z,12.15
2019-01-15T22:55:29.547Z,9.00
2019-01-15T23:01:03.828Z,11.60
2019-01-15T23:03:39.407Z,12.17
2019-01-15T23:09:09.396Z,11.90
2019-01-15T23:11:54.780Z,13.20
2019-01-15T23:14:38.278Z,19.70
2019-01-15T23:17:13.936Z,14.70
2019-01-15T23:20:02.726Z,13.57
2019-01-15T23:22:32.242Z,11.00
2019-01-15T23:25:02.010Z,9.00
2019-01-15T23:27:33.628Z,11.67
2019-01-15T23:30:17.646Z,9.00
2019-01-15T23:32:50.488Z,11.98
2019-01-15T23:35:25.974Z,9.30
2019-01-15T23:38:00.397Z,10.37
2019-01-15T23:43:06.438Z,12.23
2019-01-15T23:45:39.295Z,12.00
2019-01-15T23:51:09.003Z,12.75
2019-01-15T23:53:42.621Z,13.63
2019-01-15T23:56:17.125Z,12.73
